createdAt,value
2022-10-28T00:10:19.672Z,1014.975
2022-10-28T00:20:25.115Z,1015.139
2022-10-28T00:25:27.854Z,1015.096
2022-10-28T00:30:33.367Z,1015.049
2022-10-28T00:40:38.427Z,1015.071
2022-10-28T00:45:43.789Z,1014.96
2022-10-28T00:50:46.323Z,1014.88
2022-10-28T00:55:49.118Z,1014.95
2022-10-28T01:00:51.770Z,1014.942
2022-10-28T01:05:57.295Z,1014.826
2022-10-28T01:16:02.557Z,1014.852
2022-10-28T01:26:07.786Z,1014.819
2022-10-28T01:41:15.691Z,1014.618
2022-10-28T01:51:21.206Z,1014.573
2022-10-28T01:56:23.985Z,1014.512
2022-10-28T02:01:26.437Z,1014.484
2022-10-28T02:11:31.670Z,1014.45
2022-10-28T02:21:36.878Z,1014.444
2022-10-28T02:26:39.585Z,1014.559
2022-10-28T02:31:42.674Z,1014.517
2022-10-28T02:36:45.535Z,1014.478
2022-10-28T02:41:48.164Z,1014.365
2022-10-28T02:56:56.540Z,1014.451
2022-10-28T03:01:59.623Z,1014.427
2022-10-28T03:12:04.827Z,1014.353
2022-10-28T03:17:07.516Z,1014.3
2022-10-28T03:22:10.144Z,1014.216
2022-10-28T03:27:12.832Z,1014.17
2022-10-28T03:32:18.418Z,1014.229
2022-10-28T03:37:21.360Z,1014.444
2022-10-28T03:42:23.802Z,1014.54
2022-10-28T03:47:26.377Z,1014.546
2022-10-28T03:52:28.912Z,1014.412
2022-10-28T03:57:31.773Z,1014.379
2022-10-28T04:02:34.236Z,1014.215
2022-10-28T04:07:36.746Z,1014.295
2022-10-28T04:17:47.325Z,1014.337
2022-10-28T04:27:52.401Z,1014.211
2022-10-28T04:32:54.910Z,1014.114
2022-10-28T04:37:57.568Z,1014.161
2022-10-28T04:43:00.049Z,1014.18
2022-10-28T04:53:05.368Z,1014.095
2022-10-28T04:58:08.002Z,1014.102
2022-10-28T05:03:10.637Z,1014.198
2022-10-28T05:08:13.354Z,1014.102
2022-10-28T05:13:16.253Z,1014.111
2022-10-28T05:18:19.015Z,1014.072
2022-10-28T05:23:21.633Z,1013.894
2022-10-28T05:28:24.399Z,1013.955
2022-10-28T05:33:26.962Z,1013.984
2022-10-28T05:38:29.705Z,1013.98
2022-10-28T05:43:32.103Z,1013.955
2022-10-28T05:48:34.618Z,1013.902
2022-10-28T05:53:42.581Z,1013.94
2022-10-28T05:58:45.278Z,1013.946
2022-10-28T06:03:48.056Z,1013.941
2022-10-28T06:08:50.757Z,1013.863
2022-10-28T06:18:54.789Z,1013.765
2022-10-28T06:23:57.087Z,1013.631
2022-10-28T06:29:02.294Z,1013.704
2022-10-28T06:34:04.847Z,1013.651
2022-10-28T06:39:07.532Z,1013.614
2022-10-28T06:44:10.075Z,1013.525
2022-10-28T06:49:14.064Z,1013.74
2022-10-28T06:54:16.834Z,1013.722
2022-10-28T06:59:19.453Z,1013.773
2022-10-28T07:09:27.682Z,1013.934
2022-10-28T07:14:30.479Z,1013.817
2022-10-28T07:24:36.047Z,1013.73
2022-10-28T07:29:56.656Z,1013.892
2022-10-28T07:40:02.231Z,1013.723
2022-10-28T07:50:07.971Z,1013.698
2022-10-28T08:00:15.940Z,1013.7
2022-10-28T08:05:18.684Z,1013.69
2022-10-28T08:10:21.342Z,1013.86
2022-10-28T08:15:23.999Z,1013.968
2022-10-28T08:20:26.535Z,1013.956
2022-10-28T08:25:29.488Z,1013.968
2022-10-28T08:30:36.602Z,1013.984
2022-10-28T08:35:34.862Z,1013.937
2022-10-28T08:40:37.551Z,1013.899
2022-10-28T08:45:40.150Z,1013.796
2022-10-28T08:50:42.647Z,1013.888
2022-10-28T08:55:45.349Z,1013.973
2022-10-28T09:00:51.089Z,1014.019
2022-10-28T09:11:05.687Z,1013.937
2022-10-28T09:16:10.207Z,1013.793
2022-10-28T09:21:23.843Z,1013.678
2022-10-28T09:26:26.753Z,1013.712
2022-10-28T09:31:29.509Z,1013.728
2022-10-28T09:41:34.757Z,1013.682
2022-10-28T09:46:37.453Z,1013.642
2022-10-28T09:51:40.270Z,1013.62
2022-10-28T09:56:42.828Z,1013.484
2022-10-28T10:01:45.439Z,1013.534
2022-10-28T10:11:50.531Z,1013.431
2022-10-28T10:16:53.087Z,1013.458
2022-10-28T10:21:55.641Z,1013.39
2022-10-28T10:37:59.598Z,1013.199
2022-10-28T10:43:13.588Z,1013.111
2022-10-28T10:48:04.630Z,1013.051
2022-10-28T10:53:07.502Z,1013.034
2022-10-28T10:58:10.209Z,1012.936
2022-10-28T11:08:15.602Z,1012.892
2022-10-28T11:13:18.382Z,1012.905
2022-10-28T11:18:20.821Z,1012.912
2022-10-28T11:23:23.457Z,1012.9
2022-10-28T11:28:29.316Z,1012.822
2022-10-28T11:33:32.173Z,1012.842
2022-10-28T11:38:34.549Z,1012.775
2022-10-28T11:43:37.261Z,1012.689
2022-10-28T11:48:39.819Z,1012.602
2022-10-28T11:53:43.078Z,1012.568
2022-10-28T12:08:51.201Z,1012.514
2022-10-28T12:19:02.472Z,1012.497
2022-10-28T12:29:07.505Z,1012.483
2022-10-28T12:39:12.775Z,1012.411
2022-10-28T12:44:15.780Z,1012.402
2022-10-28T12:49:18.239Z,1012.324
2022-10-28T12:54:20.956Z,1012.277
2022-10-28T13:04:26.660Z,1012.227
2022-10-28T13:09:30.417Z,1012.234
2022-10-28T13:14:32.465Z,1012.164
2022-10-28T13:24:41.109Z,1012.016
2022-10-28T13:34:46.329Z,1011.905
2022-10-28T13:44:52.238Z,1011.845
2022-10-28T13:49:54.620Z,1011.88
2022-10-28T13:54:57.292Z,1011.894
2022-10-28T13:59:59.786Z,1011.861
2022-10-28T14:05:02.655Z,1011.738
2022-10-28T14:15:10.647Z,1011.766
2022-10-28T14:20:13.341Z,1011.834
2022-10-28T14:25:19.889Z,1011.802
2022-10-28T14:35:21.902Z,1011.764
2022-10-28T14:45:29.868Z,1011.733
2022-10-28T14:50:32.516Z,1011.699
2022-10-28T14:55:35.012Z,1011.683
2022-10-28T15:00:37.552Z,1011.634
2022-10-28T15:05:40.048Z,1011.65
2022-10-28T15:10:43.152Z,1011.593
2022-10-28T15:15:45.383Z,1011.58
2022-10-28T15:20:47.873Z,1011.564
2022-10-28T15:30:59.137Z,1011.65
2022-10-28T15:46:07.253Z,1011.652
2022-10-28T15:51:09.833Z,1011.582
2022-10-28T15:56:12.421Z,1011.594
2022-10-28T16:01:15.152Z,1011.561
2022-10-28T16:11:20.095Z,1011.493
2022-10-28T16:16:25.563Z,1011.518
2022-10-28T16:21:28.340Z,1011.475
2022-10-28T16:31:33.756Z,1011.591
2022-10-28T16:36:37.204Z,1011.553
2022-10-28T16:41:42.458Z,1011.533
2022-10-28T16:46:44.982Z,1011.477
2022-10-28T16:51:47.805Z,1011.516
2022-10-28T17:01:53.524Z,1011.568
2022-10-28T17:06:55.877Z,1011.435
2022-10-28T17:11:58.686Z,1011.475
2022-10-28T17:17:01.054Z,1011.538
2022-10-28T17:22:10.389Z,1011.584
2022-10-28T17:27:11.690Z,1011.604
2022-10-28T17:32:14.308Z,1011.66
2022-10-28T17:37:16.937Z,1011.6
2022-10-28T17:47:22.104Z,1011.574
2022-10-28T17:52:27.385Z,1011.529
2022-10-28T17:57:30.156Z,1011.57
2022-10-28T18:02:33.028Z,1011.554
2022-10-28T18:12:40.949Z,1011.578
2022-10-28T18:17:43.796Z,1011.568
2022-10-28T18:22:46.576Z,1011.538
2022-10-28T18:27:49.154Z,1011.545
2022-10-28T18:37:54.998Z,1011.528
2022-10-28T18:48:00.408Z,1011.569
2022-10-28T18:58:08.658Z,1011.458
2022-10-28T19:13:16.877Z,1011.444
2022-10-28T19:18:19.688Z,1011.488
2022-10-28T19:23:22.547Z,1011.48
2022-10-28T19:28:25.168Z,1011.527
2022-10-28T19:33:27.938Z,1011.557
2022-10-28T19:38:30.682Z,1011.568
2022-10-28T19:43:33.494Z,1011.643
2022-10-28T19:48:39.163Z,1011.676
2022-10-28T19:53:41.999Z,1011.691
2022-10-28T19:58:44.702Z,1011.762
2022-10-28T20:03:49.294Z,1011.828
2022-10-28T20:08:49.979Z,1011.936
2022-10-28T20:13:52.579Z,1011.903
2022-10-28T20:18:54.948Z,1011.9
2022-10-28T20:24:00.206Z,1012.013
2022-10-28T20:29:02.799Z,1012.028
2022-10-28T20:34:05.514Z,1011.981
2022-10-28T20:39:23.671Z,1011.994
2022-10-28T20:44:26.368Z,1012.058
2022-10-28T20:49:29.109Z,1011.951
2022-10-28T20:54:31.681Z,1012.055
2022-10-28T20:59:37.024Z,1012.057
2022-10-28T21:04:39.587Z,1012.058
2022-10-28T21:09:42.403Z,1012.083
2022-10-28T21:14:45.010Z,1012.075
2022-10-28T21:24:50.285Z,1012.123
2022-10-28T21:34:55.394Z,1012.045
2022-10-28T21:40:00.864Z,1012.084
2022-10-28T21:45:00.795Z,1012.059
2022-10-28T21:50:03.273Z,1012.119
2022-10-28T22:00:08.728Z,1012.074
2022-10-28T22:05:11.247Z,1012.14
2022-10-28T22:10:13.864Z,1012.178
2022-10-28T22:15:16.863Z,1012.171
2022-10-28T22:20:19.847Z,1012.226
2022-10-28T22:26:02.076Z,1012.235
2022-10-28T22:31:05.070Z,1012.323
2022-10-28T22:41:10.341Z,1012.362
2022-10-28T22:46:15.854Z,1012.345
2022-10-28T22:56:21.493Z,1012.425
2022-10-28T23:01:24.150Z,1012.548
2022-10-28T23:11:30.215Z,1012.684
2022-10-28T23:16:32.894Z,1012.643
2022-10-28T23:21:35.732Z,1012.621
2022-10-28T23:32:36.852Z,1012.684
2022-10-28T23:42:44.994Z,1012.59
2022-10-28T23:52:50.647Z,1012.602
2022-10-28T23:57:54.057Z,1012.652
